createdAt,value
2019-01-25T00:00:56.638Z,104.77
2019-01-25T00:03:27.634Z,111.20
2019-01-25T00:05:57.082Z,122.00
2019-01-25T00:08:26.438Z,111.87
2019-01-25T00:10:55.792Z,111.43
2019-01-25T00:13:25.116Z,119.80
2019-01-25T00:15:54.461Z,123.47
2019-01-25T00:18:23.776Z,120.23
2019-01-25T00:20:53.137Z,116.83
2019-01-25T00:23:22.451Z,125.70
2019-01-25T00:25:51.810Z,121.40
2019-01-25T00:28:21.129Z,119.77
2019-01-25T00:30:50.480Z,115.37
2019-01-25T00:33:19.810Z,113.30
2019-01-25T00:35:49.165Z,129.07
2019-01-25T00:38:18.488Z,118.87
2019-01-25T00:40:47.849Z,128.07
2019-01-25T00:43:17.161Z,114.43
2019-01-25T00:45:46.506Z,107.37
2019-01-25T00:48:15.853Z,106.93
2019-01-25T00:50:45.222Z,113.33
2019-01-25T00:53:14.584Z,119.70
2019-01-25T00:55:43.921Z,103.47
2019-01-25T00:58:13.280Z,118.30
2019-01-25T01:00:42.595Z,98.03
2019-01-25T01:03:11.945Z,114.07
2019-01-25T01:05:41.265Z,112.57
2019-01-25T01:08:10.612Z,108.30
2019-01-25T01:10:39.929Z,104.70
2019-01-25T01:13:09.273Z,115.53
2019-01-25T01:15:38.585Z,111.73
2019-01-25T01:18:07.938Z,107.27
2019-01-25T01:20:37.249Z,112.57
2019-01-25T01:23:06.601Z,104.07
2019-01-25T01:25:35.921Z,110.60
2019-01-25T01:28:05.268Z,107.07
2019-01-25T01:30:34.588Z,110.03
2019-01-25T01:33:03.947Z,109.10
2019-01-25T01:35:33.257Z,119.03
2019-01-25T01:38:02.612Z,116.93
2019-01-25T01:40:31.921Z,110.10
2019-01-25T01:43:01.272Z,114.17
2019-01-25T01:45:30.589Z,112.40
2019-01-25T01:47:59.936Z,112.40
2019-01-25T01:50:29.290Z,109.77
2019-01-25T01:52:58.643Z,96.60
2019-01-25T01:55:28.029Z,111.80
2019-01-25T01:57:57.430Z,118.67
2019-01-25T02:00:27.024Z,103.03
2019-01-25T02:02:58.225Z,99.93
2019-01-25T02:05:27.537Z,86.27
2019-01-25T02:07:56.897Z,100.23
2019-01-25T02:10:29.584Z,96.63
2019-01-25T02:12:57.505Z,102.20
2019-01-25T02:15:26.924Z,104.60
2019-01-25T02:17:56.273Z,105.50
2019-01-25T02:20:28.804Z,107.20
2019-01-25T02:22:58.269Z,93.63
2019-01-25T02:25:27.586Z,108.00
2019-01-25T02:27:56.938Z,101.67
2019-01-25T02:30:26.433Z,101.90
2019-01-25T02:32:55.785Z,88.23
2019-01-25T02:35:25.101Z,91.20
2019-01-25T02:37:54.448Z,93.90
2019-01-25T02:40:24.802Z,90.47
2019-01-25T02:42:54.174Z,93.17
2019-01-25T02:45:23.477Z,97.70
2019-01-25T02:47:52.902Z,85.87
2019-01-25T02:50:22.229Z,98.47
2019-01-25T02:52:51.577Z,96.47
2019-01-25T02:55:20.885Z,101.97
2019-01-25T02:57:50.233Z,85.80
2019-01-25T03:00:23.712Z,97.00
2019-01-25T03:02:53.388Z,107.17
2019-01-25T03:05:23.235Z,103.40
2019-01-25T03:07:52.602Z,109.77
2019-01-25T03:10:28.713Z,93.67
2019-01-25T03:12:54.290Z,105.07
2019-01-25T03:15:25.138Z,93.67
2019-01-25T03:17:54.481Z,107.07
2019-01-25T03:20:23.800Z,103.20
2019-01-25T03:22:53.162Z,104.10
2019-01-25T03:25:26.313Z,104.13
2019-01-25T03:27:55.682Z,114.47
2019-01-25T03:30:25.840Z,105.83
2019-01-25T03:32:55.222Z,91.97
2019-01-25T03:35:25.273Z,100.43
2019-01-25T03:37:54.577Z,97.37
2019-01-25T03:40:25.668Z,93.17
2019-01-25T03:42:54.979Z,103.03
2019-01-25T03:45:24.396Z,96.23
2019-01-25T03:47:53.718Z,101.80
2019-01-25T03:50:25.407Z,110.53
2019-01-25T03:52:54.716Z,103.07
2019-01-25T03:55:24.507Z,103.00
2019-01-25T03:57:53.813Z,97.80
2019-01-25T04:00:25.004Z,107.83
2019-01-25T04:02:54.317Z,108.07
2019-01-25T04:05:23.668Z,111.23
2019-01-25T04:07:52.986Z,119.37
2019-01-25T04:10:24.177Z,117.27
2019-01-25T04:12:53.485Z,99.30
2019-01-25T04:15:24.675Z,101.80
2019-01-25T04:17:53.982Z,120.10
2019-01-25T04:20:23.881Z,122.03
2019-01-25T04:22:53.176Z,122.13
2019-01-25T04:25:23.062Z,144.60
2019-01-25T04:27:52.535Z,125.37
2019-01-25T04:30:23.928Z,133.27
2019-01-25T04:32:53.224Z,133.33
2019-01-25T04:35:22.572Z,130.00
2019-01-25T04:37:51.886Z,140.30
2019-01-25T04:40:22.205Z,126.40
2019-01-25T04:42:51.516Z,125.67
2019-01-25T04:45:22.204Z,123.70
2019-01-25T04:47:51.652Z,134.47
2019-01-25T04:50:22.658Z,139.73
2019-01-25T04:52:52.069Z,131.57
2019-01-25T04:55:23.247Z,125.90
2019-01-25T04:57:52.597Z,129.17
2019-01-25T05:00:23.281Z,118.10
2019-01-25T05:02:54.645Z,106.83
2019-01-25T05:05:24.285Z,122.40
2019-01-25T05:08:01.822Z,113.60
2019-01-25T05:10:31.629Z,109.57
2019-01-25T05:13:00.945Z,115.80
2019-01-25T05:15:30.293Z,126.30
2019-01-25T05:17:59.759Z,130.00
2019-01-25T05:20:29.100Z,131.67
2019-01-25T05:23:02.438Z,110.33
2019-01-25T05:25:31.791Z,112.90
2019-01-25T05:28:09.961Z,109.77
2019-01-25T05:30:39.337Z,117.23
2019-01-25T05:33:08.650Z,118.53
2019-01-25T05:35:38.005Z,127.50
2019-01-25T05:38:07.318Z,101.07
2019-01-25T05:40:36.669Z,111.13
2019-01-25T05:43:05.986Z,175.53
2019-01-25T05:45:37.569Z,135.73
2019-01-25T05:48:06.885Z,140.03
2019-01-25T05:50:36.239Z,151.10
2019-01-25T05:53:05.592Z,128.83
2019-01-25T05:55:34.944Z,122.17
2019-01-25T05:58:06.713Z,113.83
2019-01-25T06:00:37.685Z,138.43
2019-01-25T06:03:09.806Z,145.63
2019-01-25T06:05:39.168Z,121.07
2019-01-25T06:08:23.113Z,116.23
2019-01-25T06:10:52.499Z,187.50
2019-01-25T06:13:21.812Z,132.73
2019-01-25T06:15:51.165Z,150.10
2019-01-25T06:18:20.518Z,151.93
2019-01-25T06:20:51.928Z,116.10
2019-01-25T06:23:21.273Z,109.20
2019-01-25T06:25:52.528Z,110.30
2019-01-25T06:28:21.944Z,96.93
2019-01-25T06:30:51.324Z,105.47
2019-01-25T06:33:20.672Z,109.70
2019-01-25T06:35:49.985Z,100.47
2019-01-25T06:38:19.341Z,108.40
2019-01-25T06:40:48.657Z,126.73
2019-01-25T06:43:18.001Z,103.40
2019-01-25T06:45:47.315Z,136.23
2019-01-25T06:48:16.667Z,134.67
2019-01-25T06:50:45.977Z,138.90
2019-01-25T06:53:15.333Z,125.43
2019-01-25T06:55:44.685Z,133.50
2019-01-25T06:58:27.478Z,133.03
2019-01-25T07:00:58.439Z,136.50
2019-01-25T07:03:28.009Z,144.90
2019-01-25T07:05:57.333Z,137.87
2019-01-25T07:08:26.680Z,124.33
2019-01-25T07:10:55.996Z,144.33
2019-01-25T07:13:25.340Z,140.70
2019-01-25T07:15:54.656Z,138.90
2019-01-25T07:18:24.109Z,178.03
2019-01-25T07:20:53.417Z,166.30
2019-01-25T07:23:22.772Z,161.27
2019-01-25T07:25:52.090Z,168.27
2019-01-25T07:28:21.508Z,147.10
2019-01-25T07:30:50.826Z,151.63
2019-01-25T07:33:20.313Z,127.90
2019-01-25T07:35:49.701Z,112.33
2019-01-25T07:38:19.036Z,102.43
2019-01-25T07:40:48.351Z,83.50
2019-01-25T07:43:17.704Z,61.27
2019-01-25T07:45:47.005Z,67.50
2019-01-25T07:48:16.437Z,63.20
2019-01-25T07:50:45.746Z,64.20
2019-01-25T07:53:15.118Z,68.23
2019-01-25T07:55:44.513Z,66.73
2019-01-25T07:58:13.919Z,72.07
2019-01-25T08:00:44.217Z,317.77
2019-01-25T08:03:13.558Z,123.13
2019-01-25T08:05:42.872Z,85.17
2019-01-25T08:08:12.445Z,79.60
2019-01-25T08:10:41.766Z,69.87
2019-01-25T08:13:11.142Z,71.73
2019-01-25T08:15:41.655Z,52.03
2019-01-25T08:18:11.132Z,52.67
2019-01-25T08:20:40.510Z,56.90
2019-01-25T08:23:09.845Z,64.97
2019-01-25T08:25:39.197Z,57.40
2019-01-25T08:28:08.507Z,54.57
2019-01-25T08:30:37.932Z,46.07
2019-01-25T08:33:07.250Z,45.33
2019-01-25T08:35:36.689Z,49.17
2019-01-25T08:38:06.645Z,49.37
2019-01-25T08:40:36.098Z,49.70
2019-01-25T08:43:05.391Z,43.50
2019-01-25T08:45:34.737Z,39.87
2019-01-25T08:48:04.048Z,45.10
2019-01-25T08:50:33.629Z,41.03
2019-01-25T08:53:03.046Z,42.63
2019-01-25T08:55:32.347Z,37.27
2019-01-25T08:58:01.664Z,57.87
2019-01-25T09:00:31.004Z,48.27
2019-01-25T09:03:00.390Z,45.53
2019-01-25T09:05:29.737Z,39.77
2019-01-25T09:07:59.045Z,44.17
2019-01-25T09:10:28.401Z,47.90
2019-01-25T09:12:57.773Z,43.07
2019-01-25T09:15:32.061Z,44.47
2019-01-25T09:18:01.368Z,39.33
2019-01-25T09:20:30.839Z,40.97
2019-01-25T09:23:00.150Z,40.93
2019-01-25T09:25:29.546Z,36.60
2019-01-25T09:27:58.943Z,36.07
2019-01-25T09:30:28.472Z,50.43
2019-01-25T09:32:57.854Z,38.20
2019-01-25T09:35:27.221Z,34.40
2019-01-25T09:37:56.757Z,42.13
2019-01-25T09:40:27.363Z,33.37
2019-01-25T09:42:56.888Z,36.13
2019-01-25T09:45:26.393Z,74.47
2019-01-25T09:47:55.715Z,58.90
2019-01-25T09:50:25.072Z,37.73
2019-01-25T09:52:54.375Z,37.63
2019-01-25T09:55:26.047Z,38.03
2019-01-25T09:58:04.157Z,35.53
2019-01-25T10:00:51.419Z,46.53
2019-01-25T10:03:20.738Z,37.97
2019-01-25T10:05:50.088Z,47.53
2019-01-25T10:08:19.393Z,38.63
2019-01-25T10:10:48.758Z,35.53
2019-01-25T10:13:19.071Z,33.80
2019-01-25T10:15:48.417Z,31.70
2019-01-25T10:18:17.733Z,38.37
2019-01-25T10:20:47.086Z,42.67
2019-01-25T10:23:16.399Z,48.40
2019-01-25T10:25:45.749Z,38.60
2019-01-25T10:28:15.061Z,41.67
2019-01-25T10:30:44.422Z,36.07
2019-01-25T10:33:14.697Z,40.10
2019-01-25T10:35:44.053Z,43.47
2019-01-25T10:38:13.362Z,35.20
2019-01-25T10:40:42.727Z,33.10
2019-01-25T10:43:12.038Z,34.57
2019-01-25T10:45:43.373Z,42.50
2019-01-25T10:48:12.689Z,39.10
2019-01-25T10:50:42.045Z,38.57
2019-01-25T10:53:11.461Z,41.33
2019-01-25T10:55:40.773Z,45.50
2019-01-25T10:58:11.858Z,41.73
2019-01-25T11:00:41.161Z,42.30
2019-01-25T11:03:10.521Z,40.80
2019-01-25T11:05:39.897Z,33.40
2019-01-25T11:08:09.339Z,33.17
2019-01-25T11:10:38.647Z,31.50
2019-01-25T11:13:08.065Z,40.03
2019-01-25T11:15:39.714Z,39.23
2019-01-25T11:18:09.107Z,33.20
2019-01-25T11:20:38.435Z,34.43
2019-01-25T11:23:07.797Z,34.33
2019-01-25T11:25:39.549Z,33.97
2019-01-25T11:28:08.902Z,50.40
2019-01-25T11:30:38.253Z,38.40
2019-01-25T11:33:07.619Z,36.00
2019-01-25T11:35:36.934Z,35.83
2019-01-25T11:38:07.262Z,36.27
2019-01-25T11:40:39.673Z,35.57
2019-01-25T11:43:09.293Z,38.50
2019-01-25T11:45:38.644Z,37.20
2019-01-25T11:48:10.534Z,67.80
2019-01-25T11:50:39.838Z,60.67
2019-01-25T11:53:09.184Z,74.13
2019-01-25T11:55:39.472Z,51.63
2019-01-25T11:58:09.009Z,52.40
2019-01-25T12:00:39.963Z,57.17
2019-01-25T12:03:09.313Z,50.80
2019-01-25T12:05:38.622Z,43.13
2019-01-25T12:08:07.974Z,44.80
2019-01-25T12:10:37.384Z,41.87
2019-01-25T12:13:06.754Z,37.83
2019-01-25T12:15:36.068Z,39.40
2019-01-25T12:18:05.462Z,47.20
2019-01-25T12:20:34.793Z,48.93
2019-01-25T12:23:04.143Z,54.07
2019-01-25T12:25:33.445Z,62.30
2019-01-25T12:28:05.399Z,66.00
2019-01-25T12:30:38.513Z,56.87
2019-01-25T12:33:08.036Z,74.50
2019-01-25T12:35:40.145Z,70.53
2019-01-25T12:38:09.497Z,63.07
2019-01-25T12:40:42.138Z,73.57
2019-01-25T12:43:09.851Z,59.80
2019-01-25T12:45:39.161Z,64.50
2019-01-25T12:48:08.600Z,66.93
2019-01-25T12:50:43.317Z,80.30
2019-01-25T12:53:12.853Z,56.87
2019-01-25T12:55:42.157Z,56.67
2019-01-25T12:58:11.465Z,52.57
2019-01-25T13:00:41.685Z,57.03
2019-01-25T13:03:11.450Z,65.17
2019-01-25T13:05:40.809Z,48.63
2019-01-25T13:08:10.112Z,60.53
2019-01-25T13:10:39.457Z,51.33
2019-01-25T13:13:08.769Z,54.67
2019-01-25T13:15:38.121Z,56.40
2019-01-25T13:18:07.432Z,55.73
2019-01-25T13:20:39.520Z,74.53
2019-01-25T13:23:07.712Z,65.27
2019-01-25T13:25:37.069Z,81.03
2019-01-25T13:28:06.377Z,73.33
2019-01-25T13:30:35.730Z,68.40
2019-01-25T13:33:05.413Z,70.33
2019-01-25T13:35:34.762Z,77.83
2019-01-25T13:38:04.072Z,76.80
2019-01-25T13:40:33.425Z,77.70
2019-01-25T13:43:02.737Z,86.80
2019-01-25T13:45:32.088Z,75.90
2019-01-25T13:48:01.464Z,58.17
2019-01-25T13:50:31.098Z,69.80
2019-01-25T13:53:00.402Z,63.03
2019-01-25T13:55:29.749Z,54.10
2019-01-25T13:57:59.069Z,46.87
2019-01-25T14:00:33.679Z,48.73
2019-01-25T14:03:02.976Z,53.13
2019-01-25T14:05:32.337Z,60.30
2019-01-25T14:08:01.645Z,51.17
2019-01-25T14:10:33.057Z,53.00
2019-01-25T14:13:02.367Z,53.77
2019-01-25T14:15:31.709Z,53.17
2019-01-25T14:18:01.028Z,53.07
2019-01-25T14:20:32.095Z,53.00
2019-01-25T14:23:01.425Z,55.07
2019-01-25T14:25:30.978Z,48.90
2019-01-25T14:28:00.293Z,46.47
2019-01-25T14:30:32.530Z,54.73
2019-01-25T14:33:01.833Z,51.57
2019-01-25T14:35:31.185Z,60.13
2019-01-25T14:38:00.502Z,85.23
2019-01-25T14:40:29.869Z,97.10
2019-01-25T14:42:59.169Z,67.73
2019-01-25T14:45:28.521Z,86.47
2019-01-25T14:47:57.841Z,71.90
2019-01-25T14:50:29.532Z,91.17
2019-01-25T14:52:59.190Z,129.37
2019-01-25T14:55:28.540Z,83.13
2019-01-25T14:57:58.818Z,90.33
2019-01-25T15:00:28.199Z,110.27
2019-01-25T15:02:57.528Z,105.23
2019-01-25T15:05:26.949Z,112.10
2019-01-25T15:07:56.270Z,301.83
2019-01-25T15:10:25.725Z,351.77
2019-01-25T15:12:58.713Z,386.53
2019-01-25T15:15:28.532Z,353.30
2019-01-25T15:17:57.956Z,271.20
2019-01-25T15:20:27.750Z,230.73
2019-01-25T15:22:57.129Z,180.60
2019-01-25T15:25:26.440Z,152.70
2019-01-25T15:27:55.804Z,146.23
2019-01-25T15:30:29.107Z,150.67
2019-01-25T15:32:58.477Z,146.17
2019-01-25T15:35:27.928Z,142.27
2019-01-25T15:37:57.430Z,128.83
2019-01-25T15:40:26.737Z,107.57
2019-01-25T15:42:56.613Z,112.37
2019-01-25T15:45:27.545Z,98.97
2019-01-25T15:47:57.298Z,90.43
2019-01-25T15:50:29.172Z,95.27
2019-01-25T15:52:58.532Z,95.30
2019-01-25T15:55:27.900Z,87.53
2019-01-25T15:57:57.521Z,89.77
2019-01-25T16:00:28.350Z,100.57
2019-01-25T16:02:57.710Z,102.80
2019-01-25T16:05:27.252Z,85.33
2019-01-25T16:07:56.585Z,73.67
2019-01-25T16:10:25.940Z,81.77
2019-01-25T16:12:55.283Z,86.50
2019-01-25T16:15:28.206Z,81.27
2019-01-25T16:17:57.663Z,92.13
2019-01-25T16:20:27.258Z,94.73
2019-01-25T16:22:56.888Z,79.43
2019-01-25T16:25:28.233Z,75.00
2019-01-25T16:27:57.585Z,81.57
2019-01-25T16:30:28.944Z,79.27
2019-01-25T16:32:58.737Z,80.67
2019-01-25T16:35:29.024Z,81.50
2019-01-25T16:37:58.754Z,87.50
2019-01-25T16:40:30.166Z,93.70
2019-01-25T16:42:59.842Z,122.70
2019-01-25T16:45:38.214Z,130.83
2019-01-25T16:48:07.626Z,149.20
2019-01-25T16:50:36.944Z,153.13
2019-01-25T16:53:07.936Z,147.43
2019-01-25T16:55:37.267Z,182.90
2019-01-25T16:58:06.734Z,167.37
2019-01-25T17:00:38.828Z,163.00
2019-01-25T17:03:08.194Z,132.60
2019-01-25T17:05:37.512Z,145.27
2019-01-25T17:08:07.033Z,141.90
2019-01-25T17:10:36.345Z,145.93
2019-01-25T17:13:05.761Z,148.03
2019-01-25T17:15:35.079Z,154.17
2019-01-25T17:18:04.692Z,150.37
2019-01-25T17:20:34.001Z,180.77
2019-01-25T17:23:04.804Z,147.87
2019-01-25T17:25:34.307Z,135.83
2019-01-25T17:28:04.054Z,124.53
2019-01-25T17:30:35.298Z,125.43
2019-01-25T17:33:04.677Z,106.63
2019-01-25T17:35:34.217Z,115.20
2019-01-25T17:38:03.816Z,129.20
2019-01-25T17:40:46.150Z,111.70
2019-01-25T17:43:10.000Z,102.83
2019-01-25T17:45:39.384Z,109.87
2019-01-25T17:48:09.810Z,107.10
2019-01-25T17:50:39.194Z,107.03
2019-01-25T17:53:08.626Z,122.43
2019-01-25T17:55:38.016Z,104.30
2019-01-25T17:58:08.093Z,105.87
2019-01-25T18:00:42.144Z,108.93
2019-01-25T18:03:11.886Z,107.83
2019-01-25T18:05:41.197Z,117.30
2019-01-25T18:08:11.532Z,121.17
2019-01-25T18:10:40.883Z,100.53
2019-01-25T18:13:10.228Z,103.07
2019-01-25T18:15:39.596Z,104.93
2019-01-25T18:18:08.904Z,103.00
2019-01-25T18:20:38.283Z,101.37
2019-01-25T18:23:07.658Z,98.97
2019-01-25T18:25:40.230Z,105.47
2019-01-25T18:28:13.044Z,100.60
2019-01-25T18:30:45.820Z,104.47
2019-01-25T18:33:15.200Z,106.57
2019-01-25T18:35:44.570Z,101.83
2019-01-25T18:38:13.891Z,99.53
2019-01-25T18:40:43.240Z,94.93
2019-01-25T18:43:12.553Z,109.17
2019-01-25T18:45:41.910Z,106.87
2019-01-25T18:48:11.226Z,110.10
2019-01-25T18:50:40.572Z,92.87
2019-01-25T18:53:09.890Z,85.90
2019-01-25T18:55:39.244Z,97.43
2019-01-25T18:58:08.548Z,108.67
2019-01-25T19:00:37.917Z,103.93
2019-01-25T19:03:07.233Z,107.83
2019-01-25T19:05:36.589Z,117.23
2019-01-25T19:08:06.092Z,103.60
2019-01-25T19:10:35.457Z,112.17
2019-01-25T19:13:04.770Z,120.67
2019-01-25T19:15:34.137Z,118.13
2019-01-25T19:18:03.452Z,116.03
2019-01-25T19:20:32.807Z,136.17
2019-01-25T19:23:02.114Z,125.33
2019-01-25T19:25:31.558Z,135.23
2019-01-25T19:28:00.950Z,126.00
2019-01-25T19:30:38.995Z,140.70
2019-01-25T19:33:08.302Z,134.97
2019-01-25T19:35:39.342Z,129.03
2019-01-25T19:38:09.993Z,137.63
2019-01-25T19:40:39.377Z,148.47
2019-01-25T19:43:08.757Z,151.10
2019-01-25T19:45:38.190Z,148.57
2019-01-25T19:48:07.516Z,143.53
2019-01-25T19:50:36.917Z,139.87
2019-01-25T19:53:06.309Z,141.50
2019-01-25T19:55:35.685Z,142.80
2019-01-25T19:58:08.210Z,131.77
2019-01-25T20:00:43.305Z,131.43
2019-01-25T20:03:12.683Z,129.17
2019-01-25T20:05:42.038Z,125.90
2019-01-25T20:08:11.466Z,127.77
2019-01-25T20:10:40.893Z,122.83
2019-01-25T20:13:11.609Z,117.40
2019-01-25T20:15:41.070Z,115.73
2019-01-25T20:18:10.459Z,125.20
2019-01-25T20:20:40.716Z,117.20
2019-01-25T20:23:10.316Z,121.63
2019-01-25T20:25:39.706Z,121.97
2019-01-25T20:28:10.065Z,122.60
2019-01-25T20:30:39.376Z,122.40
2019-01-25T20:33:08.801Z,123.17
2019-01-25T20:35:43.046Z,115.07
2019-01-25T20:38:12.469Z,117.40
2019-01-25T20:40:41.777Z,117.63
2019-01-25T20:43:11.134Z,126.37
2019-01-25T20:45:41.977Z,130.07
2019-01-25T20:48:11.331Z,136.93
2019-01-25T20:50:40.653Z,122.00
2019-01-25T20:53:12.336Z,126.13
2019-01-25T20:55:42.105Z,120.80
2019-01-25T20:58:11.456Z,115.53
2019-01-25T21:00:41.002Z,125.13
2019-01-25T21:03:12.805Z,125.47
2019-01-25T21:05:42.123Z,136.50
2019-01-25T21:08:11.472Z,123.73
2019-01-25T21:10:40.792Z,134.27
2019-01-25T21:13:10.140Z,139.10
2019-01-25T21:15:39.453Z,136.70
2019-01-25T21:18:08.806Z,111.57
2019-01-25T21:20:42.718Z,115.83
2019-01-25T21:23:12.068Z,122.77
2019-01-25T21:25:41.381Z,132.07
2019-01-25T21:28:10.804Z,132.03
2019-01-25T21:30:40.259Z,128.10
2019-01-25T21:33:09.627Z,131.10
2019-01-25T21:35:38.928Z,144.77
2019-01-25T21:38:08.295Z,134.47
2019-01-25T21:40:37.672Z,128.30
2019-01-25T21:43:07.034Z,151.93
2019-01-25T21:45:43.008Z,180.10
2019-01-25T21:48:08.545Z,218.60
2019-01-25T21:50:40.410Z,183.27
2019-01-25T21:53:09.754Z,150.50
2019-01-25T21:55:39.080Z,170.97
2019-01-25T21:58:08.448Z,143.37
2019-01-25T22:00:37.761Z,148.43
2019-01-25T22:03:07.122Z,149.87
2019-01-25T22:05:36.469Z,142.43
2019-01-25T22:08:05.816Z,160.73
2019-01-25T22:10:37.563Z,142.37
2019-01-25T22:13:06.929Z,169.07
2019-01-25T22:15:37.258Z,158.03
2019-01-25T22:18:06.678Z,177.63
2019-01-25T22:20:36.024Z,149.90
2019-01-25T22:23:05.456Z,157.60
2019-01-25T22:25:34.770Z,181.97
2019-01-25T22:28:04.148Z,143.53
2019-01-25T22:30:34.043Z,144.60
2019-01-25T22:33:03.482Z,185.93
2019-01-25T22:35:32.802Z,188.13
2019-01-25T22:38:02.132Z,173.17
2019-01-25T22:40:31.493Z,170.30
2019-01-25T22:43:01.776Z,149.17
2019-01-25T22:45:31.133Z,134.03
2019-01-25T22:48:00.618Z,149.17
2019-01-25T22:50:32.545Z,180.17
2019-01-25T22:53:01.859Z,161.67
2019-01-25T22:55:31.205Z,196.03
2019-01-25T22:58:00.516Z,143.67
2019-01-25T23:00:50.589Z,147.23
2019-01-25T23:03:32.937Z,159.57
2019-01-25T23:06:05.888Z,154.07
2019-01-25T23:08:35.184Z,129.47
2019-01-25T23:11:05.501Z,119.73
2019-01-25T23:13:35.023Z,124.63
2019-01-25T23:16:06.484Z,123.20
2019-01-25T23:18:35.443Z,105.13
2019-01-25T23:21:04.810Z,125.67
2019-01-25T23:23:34.128Z,109.60
2019-01-25T23:26:03.507Z,107.23
2019-01-25T23:28:32.817Z,109.97
2019-01-25T23:31:02.181Z,103.47
2019-01-25T23:33:31.504Z,95.03
2019-01-25T23:36:01.172Z,91.13
2019-01-25T23:38:30.557Z,82.03
2019-01-25T23:40:59.929Z,82.23
2019-01-25T23:43:29.386Z,87.83
2019-01-25T23:45:58.749Z,79.10
2019-01-25T23:48:28.069Z,83.00
2019-01-25T23:50:57.404Z,76.00
2019-01-25T23:53:26.711Z,75.73
2019-01-25T23:55:56.067Z,70.90
2019-01-25T23:58:25.370Z,74.53
